Mississagi — CFG8050 — position and weather

sailwx.info

Track history (hours):
 
Tides and Currents Weather Stations Pressure Air Temp Water Temp Dewpoint Dewpoint Depression Visibility Wind Speed Wind Dir Waves Ship Positions

Mississagi

Last reported at 2016-Jul-21 07:33 UTC. Time now 2016-Jul-26 06:34 UTC.
Position N 45°45' W 084°35'.

Length 189 m; draft 7.2 m.

Type: Cargo ship. MMSI: 316004940.

Date/timePositionNaut miles runAvg speedWind from/ knotsBaromVisibWave heightAir tempDewpointWater temp
2016-Jul-21 07:33N 45°45' W 084°35'1111.0
2016-Jul-21 06:33N 45°49' W 084°49'1111.2
2016-Jul-21 05:33N 45°51' W 085°05'1611.1
2016-Jul-21 04:08N 45°53' W 085°28'911.1
2016-Jul-21 03:19N 45°54' W 085°41'810.4
2016-Jul-21 02:33N 45°56' W 085°51'2 0.3
2016-Jul-20 21:11N 45°58' W 085°52'0 0.0
2016-Jul-20 20:28N 45°58' W 085°52'0 0.0
2016-Jul-20 19:34N 45°58' W 085°52'1 1.0
2016-Jul-20 18:33N 45°57' W 085°53'1211.5
2016-Jul-20 17:33N 45°54' W 085°37'1211.6
2016-Jul-20 16:34N 45°52' W 085°20'1211.7
2016-Jul-20 15:33N 45°51' W 085°03'1211.6
2016-Jul-20 14:34N 45°49' W 084°47'1211.7
2016-Jul-20 13:34N 45°44' W 084°32'  
2016-Jul-15 09:32N 45°59' W 083°53'0 0.0
2016-Jul-15 08:32N 45°59' W 083°53'  
Track history (hours):
 
Tides and Currents Weather Stations Pressure Air Temp Water Temp Dewpoint Dewpoint Depression Visibility Wind Speed Wind Dir Waves Ship Positions

Mississagi

Last reported at 2016-Jul-21 07:33 UTC. Time now 2016-Jul-26 06:34 UTC.
Position N 45°45' W 084°35'.

Length 189 m; draft 7.2 m.

Type: Cargo ship. MMSI: 316004940.

Date/timePositionNaut miles runAvg speedWind from/ knotsBaromVisibWave heightAir tempDewpointWater temp
2016-Jul-21 07:33N 45°45' W 084°35'1111.0
2016-Jul-21 06:33N 45°49' W 084°49'1111.2
2016-Jul-21 05:33N 45°51' W 085°05'1611.1
2016-Jul-21 04:08N 45°53' W 085°28'911.1
2016-Jul-21 03:19N 45°54' W 085°41'810.4
2016-Jul-21 02:33N 45°56' W 085°51'2 0.3
2016-Jul-20 21:11N 45°58' W 085°52'0 0.0
2016-Jul-20 20:28N 45°58' W 085°52'0 0.0
2016-Jul-20 19:34N 45°58' W 085°52'1 1.0
2016-Jul-20 18:33N 45°57' W 085°53'1211.5
2016-Jul-20 17:33N 45°54' W 085°37'1211.6
2016-Jul-20 16:34N 45°52' W 085°20'1211.7
2016-Jul-20 15:33N 45°51' W 085°03'1211.6
2016-Jul-20 14:34N 45°49' W 084°47'1211.7
2016-Jul-20 13:34N 45°44' W 084°32'  
2016-Jul-15 09:32N 45°59' W 083°53'0 0.0
2016-Jul-15 08:32N 45°59' W 083°53'  

Dump ship's entire track history